sensor_id;sensor_type;location;lat;lon;timestamp;P1;durP1;ratioP1;P2;durP2;ratioP2
24030;SDS011;12240;51.142;22.486;2023-07-02T00:00:42;20.83;;;10.98;;
24030;SDS011;12240;51.142;22.486;2023-07-02T00:03:11;19.35;;;11.55;;
24030;SDS011;12240;51.142;22.486;2023-07-02T00:05:39;27.15;;;16.58;;
24030;SDS011;12240;51.142;22.486;2023-07-02T00:08:07;22.25;;;12.57;;
24030;SDS011;12240;51.142;22.486;2023-07-02T00:10:35;22.98;;;12.63;;
24030;SDS011;12240;51.142;22.486;2023-07-02T00:13:03;18.55;;;12.65;;
24030;SDS011;12240;51.142;22.486;2023-07-02T00:15:31;21.20;;;12.93;;
24030;SDS011;12240;51.142;22.486;2023-07-02T00:17:59;29.15;;;12.77;;
24030;SDS011;12240;51.142;22.486;2023-07-02T00:20:28;30.70;;;15.18;;
24030;SDS011;12240;51.142;22.486;2023-07-02T00:22:57;28.20;;;14.85;;
24030;SDS011;12240;51.142;22.486;2023-07-02T00:25:26;23.27;;;13.07;;
24030;SDS011;12240;51.142;22.486;2023-07-02T00:27:54;25.10;;;13.25;;
24030;SDS011;12240;51.142;22.486;2023-07-02T00:30:23;24.80;;;13.98;;
24030;SDS011;12240;51.142;22.486;2023-07-02T00:32:51;25.25;;;12.77;;
24030;SDS011;12240;51.142;22.486;2023-07-02T00:35:19;24.15;;;13.77;;
24030;SDS011;12240;51.142;22.486;2023-07-02T00:37:48;31.60;;;13.27;;
24030;SDS011;12240;51.142;22.486;2023-07-02T00:40:17;28.58;;;13.73;;
24030;SDS011;12240;51.142;22.486;2023-07-02T00:42:45;23.23;;;13.23;;
24030;SDS011;12240;51.142;22.486;2023-07-02T00:45:13;26.63;;;14.23;;
24030;SDS011;12240;51.142;22.486;2023-07-02T00:47:41;31.73;;;13.70;;
24030;SDS011;12240;51.142;22.486;2023-07-02T00:50:10;20.45;;;13.27;;
24030;SDS011;12240;51.142;22.486;2023-07-02T00:52:39;31.48;;;14.32;;
24030;SDS011;12240;51.142;22.486;2023-07-02T00:55:07;20.27;;;13.50;;
24030;SDS011;12240;51.142;22.486;2023-07-02T00:57:36;28.90;;;12.68;;
24030;SDS011;12240;51.142;22.486;2023-07-02T01:00:04;23.77;;;12.25;;
24030;SDS011;12240;51.142;22.486;2023-07-02T01:02:34;26.30;;;13.85;;
24030;SDS011;12240;51.142;22.486;2023-07-02T01:05:05;20.08;;;13.57;;
24030;SDS011;12240;51.142;22.486;2023-07-02T01:07:33;25.83;;;14.07;;
24030;SDS011;12240;51.142;22.486;2023-07-02T01:10:02;26.65;;;13.77;;
24030;SDS011;12240;51.142;22.486;2023-07-02T01:12:30;20.40;;;13.45;;
24030;SDS011;12240;51.142;22.486;2023-07-02T01:14:59;28.85;;;13.93;;
24030;SDS011;12240;51.142;22.486;2023-07-02T01:17:30;25.33;;;13.52;;
24030;SDS011;12240;51.142;22.486;2023-07-02T01:20:05;21.83;;;12.90;;
24030;SDS011;12240;51.142;22.486;2023-07-02T01:22:38;24.98;;;14.18;;
24030;SDS011;12240;51.142;22.486;2023-07-02T01:25:07;22.40;;;13.73;;
24030;SDS011;12240;51.142;22.486;2023-07-02T01:27:36;20.13;;;12.80;;
24030;SDS011;12240;51.142;22.486;2023-07-02T01:30:07;25.35;;;12.35;;
24030;SDS011;12240;51.142;22.486;2023-07-02T01:32:37;30.10;;;13.40;;
24030;SDS011;12240;51.142;22.486;2023-07-02T01:35:06;34.50;;;14.00;;
24030;SDS011;12240;51.142;22.486;2023-07-02T01:37:35;22.25;;;13.02;;
24030;SDS011;12240;51.142;22.486;2023-07-02T01:40:05;26.38;;;13.02;;
24030;SDS011;12240;51.142;22.486;2023-07-02T01:42:37;28.48;;;13.32;;
24030;SDS011;12240;51.142;22.486;2023-07-02T01:45:06;29.05;;;13.07;;
24030;SDS011;12240;51.142;22.486;2023-07-02T01:47:35;32.58;;;13.50;;
24030;SDS011;12240;51.142;22.486;2023-07-02T01:50:03;23.00;;;13.07;;
24030;SDS011;12240;51.142;22.486;2023-07-02T01:52:34;37.80;;;13.63;;
24030;SDS011;12240;51.142;22.486;2023-07-02T01:55:02;30.77;;;13.23;;
24030;SDS011;12240;51.142;22.486;2023-07-02T01:57:31;23.58;;;12.68;;
24030;SDS011;12240;51.142;22.486;2023-07-02T01:59:59;30.42;;;12.98;;
24030;SDS011;12240;51.142;22.486;2023-07-02T02:02:27;26.98;;;11.80;;
24030;SDS011;12240;51.142;22.486;2023-07-02T02:04:55;28.05;;;12.95;;
24030;SDS011;12240;51.142;22.486;2023-07-02T02:07:24;21.45;;;12.38;;
24030;SDS011;12240;51.142;22.486;2023-07-02T02:09:53;29.30;;;12.15;;
24030;SDS011;12240;51.142;22.486;2023-07-02T02:12:21;23.80;;;12.30;;
24030;SDS011;12240;51.142;22.486;2023-07-02T02:14:49;26.02;;;12.35;;
24030;SDS011;12240;51.142;22.486;2023-07-02T02:17:18;22.38;;;12.55;;
24030;SDS011;12240;51.142;22.486;2023-07-02T02:19:46;22.80;;;12.85;;
24030;SDS011;12240;51.142;22.486;2023-07-02T02:22:15;20.83;;;12.68;;
24030;SDS011;12240;51.142;22.486;2023-07-02T02:24:43;25.98;;;13.05;;
24030;SDS011;12240;51.142;22.486;2023-07-02T02:27:11;25.25;;;12.88;;
24030;SDS011;12240;51.142;22.486;2023-07-02T02:29:39;27.65;;;12.98;;
24030;SDS011;12240;51.142;22.486;2023-07-02T02:32:08;33.70;;;13.35;;
24030;SDS011;12240;51.142;22.486;2023-07-02T02:34:36;28.35;;;13.30;;
24030;SDS011;12240;51.142;22.486;2023-07-02T02:37:04;27.42;;;14.30;;
24030;SDS011;12240;51.142;22.486;2023-07-02T02:39:32;23.30;;;14.40;;
24030;SDS011;12240;51.142;22.486;2023-07-02T02:42:00;25.67;;;13.63;;
24030;SDS011;12240;51.142;22.486;2023-07-02T02:44:28;29.67;;;13.80;;
24030;SDS011;12240;51.142;22.486;2023-07-02T02:46:57;31.95;;;13.02;;
24030;SDS011;12240;51.142;22.486;2023-07-02T02:49:25;24.45;;;13.77;;
24030;SDS011;12240;51.142;22.486;2023-07-02T02:51:53;26.50;;;13.65;;
24030;SDS011;12240;51.142;22.486;2023-07-02T02:54:21;23.95;;;12.93;;
24030;SDS011;12240;51.142;22.486;2023-07-02T02:56:49;23.80;;;14.52;;
24030;SDS011;12240;51.142;22.486;2023-07-02T02:59:17;22.52;;;13.25;;
24030;SDS011;12240;51.142;22.486;2023-07-02T03:01:45;22.52;;;13.30;;
24030;SDS011;12240;51.142;22.486;2023-07-02T03:04:14;22.38;;;13.18;;
24030;SDS011;12240;51.142;22.486;2023-07-02T03:06:42;21.50;;;13.40;;
24030;SDS011;12240;51.142;22.486;2023-07-02T03:09:10;23.85;;;13.50;;
24030;SDS011;12240;51.142;22.486;2023-07-02T03:11:38;35.40;;;13.90;;
24030;SDS011;12240;51.142;22.486;2023-07-02T03:14:06;26.58;;;13.57;;
24030;SDS011;12240;51.142;22.486;2023-07-02T03:21:13;24.90;;;13.32;;
24030;SDS011;12240;51.142;22.486;2023-07-02T03:23:41;23.90;;;13.00;;
24030;SDS011;12240;51.142;22.486;2023-07-02T03:26:09;21.98;;;12.50;;
24030;SDS011;12240;51.142;22.486;2023-07-02T03:28:37;25.52;;;13.25;;
24030;SDS011;12240;51.142;22.486;2023-07-02T03:31:05;25.70;;;11.70;;
24030;SDS011;12240;51.142;22.486;2023-07-02T03:33:33;22.45;;;13.57;;
24030;SDS011;12240;51.142;22.486;2023-07-02T03:36:01;21.75;;;12.32;;
24030;SDS011;12240;51.142;22.486;2023-07-02T03:38:30;28.17;;;13.02;;
24030;SDS011;12240;51.142;22.486;2023-07-02T03:40:58;26.65;;;12.77;;
24030;SDS011;12240;51.142;22.486;2023-07-02T03:43:26;19.15;;;12.98;;
24030;SDS011;12240;51.142;22.486;2023-07-02T03:45:54;20.25;;;13.45;;
24030;SDS011;12240;51.142;22.486;2023-07-02T03:48:22;26.55;;;12.85;;
24030;SDS011;12240;51.142;22.486;2023-07-02T03:50:50;23.92;;;13.00;;
24030;SDS011;12240;51.142;22.486;2023-07-02T03:53:18;23.70;;;13.20;;
24030;SDS011;12240;51.142;22.486;2023-07-02T03:55:46;20.90;;;13.75;;
24030;SDS011;12240;51.142;22.486;2023-07-02T03:58:14;29.20;;;13.60;;
24030;SDS011;12240;51.142;22.486;2023-07-02T04:00:42;23.02;;;13.20;;
24030;SDS011;12240;51.142;22.486;2023-07-02T04:03:11;27.33;;;13.45;;
24030;SDS011;12240;51.142;22.486;2023-07-02T04:05:39;24.50;;;12.57;;
24030;SDS011;12240;51.142;22.486;2023-07-02T04:08:07;20.42;;;11.93;;
24030;SDS011;12240;51.142;22.486;2023-07-02T04:10:35;23.83;;;12.95;;
24030;SDS011;12240;51.142;22.486;2023-07-02T04:13:03;20.42;;;10.55;;
24030;SDS011;12240;51.142;22.486;2023-07-02T04:15:31;28.35;;;11.90;;
24030;SDS011;12240;51.142;22.486;2023-07-02T04:17:59;23.60;;;12.05;;
24030;SDS011;12240;51.142;22.486;2023-07-02T04:20:27;29.98;;;11.88;;
24030;SDS011;12240;51.142;22.486;2023-07-02T04:22:55;24.52;;;11.77;;
24030;SDS011;12240;51.142;22.486;2023-07-02T04:25:23;26.65;;;11.73;;
24030;SDS011;12240;51.142;22.486;2023-07-02T04:28:11;25.08;;;11.48;;
24030;SDS011;12240;51.142;22.486;2023-07-02T04:30:39;33.85;;;11.50;;
24030;SDS011;12240;51.142;22.486;2023-07-02T04:33:09;19.95;;;11.77;;
24030;SDS011;12240;51.142;22.486;2023-07-02T04:35:41;37.58;;;11.63;;
24030;SDS011;12240;51.142;22.486;2023-07-02T04:38:10;22.67;;;10.77;;
24030;SDS011;12240;51.142;22.486;2023-07-02T04:40:39;27.30;;;12.20;;
24030;SDS011;12240;51.142;22.486;2023-07-02T04:43:09;19.98;;;11.35;;
24030;SDS011;12240;51.142;22.486;2023-07-02T04:45:37;28.52;;;12.27;;
24030;SDS011;12240;51.142;22.486;2023-07-02T04:48:06;19.33;;;10.85;;
24030;SDS011;12240;51.142;22.486;2023-07-02T04:50:34;19.02;;;11.00;;
24030;SDS011;12240;51.142;22.486;2023-07-02T04:53:02;24.20;;;12.00;;
24030;SDS011;12240;51.142;22.486;2023-07-02T04:55:30;25.27;;;11.13;;
24030;SDS011;12240;51.142;22.486;2023-07-02T04:57:58;22.45;;;11.10;;
24030;SDS011;12240;51.142;22.486;2023-07-02T05:00:26;21.70;;;10.43;;
24030;SDS011;12240;51.142;22.486;2023-07-02T05:02:54;17.15;;;10.27;;
24030;SDS011;12240;51.142;22.486;2023-07-02T05:05:23;18.92;;;10.48;;
24030;SDS011;12240;51.142;22.486;2023-07-02T05:07:50;18.50;;;10.30;;
24030;SDS011;12240;51.142;22.486;2023-07-02T05:10:19;22.30;;;10.32;;
24030;SDS011;12240;51.142;22.486;2023-07-02T05:12:47;17.58;;;10.40;;
24030;SDS011;12240;51.142;22.486;2023-07-02T05:15:15;17.30;;;10.07;;
24030;SDS011;12240;51.142;22.486;2023-07-02T05:17:43;18.70;;;10.02;;
24030;SDS011;12240;51.142;22.486;2023-07-02T05:20:11;15.48;;;9.90;;
24030;SDS011;12240;51.142;22.486;2023-07-02T05:22:40;18.45;;;9.65;;
24030;SDS011;12240;51.142;22.486;2023-07-02T05:25:08;18.83;;;10.30;;
24030;SDS011;12240;51.142;22.486;2023-07-02T05:27:36;14.43;;;9.25;;
24030;SDS011;12240;51.142;22.486;2023-07-02T05:30:05;16.75;;;9.63;;
24030;SDS011;12240;51.142;22.486;2023-07-02T05:32:34;17.85;;;9.32;;
24030;SDS011;12240;51.142;22.486;2023-07-02T05:35:02;20.27;;;9.13;;
24030;SDS011;12240;51.142;22.486;2023-07-02T05:37:31;19.83;;;9.43;;
24030;SDS011;12240;51.142;22.486;2023-07-02T05:39:59;17.98;;;9.38;;
24030;SDS011;12240;51.142;22.486;2023-07-02T05:42:27;16.58;;;8.80;;
24030;SDS011;12240;51.142;22.486;2023-07-02T05:44:55;16.05;;;9.32;;
24030;SDS011;12240;51.142;22.486;2023-07-02T05:47:23;13.85;;;9.32;;
24030;SDS011;12240;51.142;22.486;2023-07-02T05:49:54;14.20;;;8.85;;
24030;SDS011;12240;51.142;22.486;2023-07-02T05:52:22;23.77;;;10.30;;
24030;SDS011;12240;51.142;22.486;2023-07-02T05:54:51;13.30;;;7.95;;
24030;SDS011;12240;51.142;22.486;2023-07-02T05:57:19;14.60;;;8.70;;
24030;SDS011;12240;51.142;22.486;2023-07-02T05:59:47;20.00;;;8.23;;
24030;SDS011;12240;51.142;22.486;2023-07-02T06:02:15;17.88;;;8.07;;
24030;SDS011;12240;51.142;22.486;2023-07-02T06:04:43;15.35;;;8.18;;
24030;SDS011;12240;51.142;22.486;2023-07-02T06:07:13;15.75;;;8.70;;
24030;SDS011;12240;51.142;22.486;2023-07-02T06:09:41;14.43;;;8.60;;
24030;SDS011;12240;51.142;22.486;2023-07-02T06:12:10;14.00;;;8.10;;
24030;SDS011;12240;51.142;22.486;2023-07-02T06:14:38;12.82;;;7.15;;
24030;SDS011;12240;51.142;22.486;2023-07-02T06:17:06;15.05;;;7.00;;
24030;SDS011;12240;51.142;22.486;2023-07-02T06:19:36;20.83;;;7.97;;
24030;SDS011;12240;51.142;22.486;2023-07-02T06:22:05;14.25;;;6.93;;
24030;SDS011;12240;51.142;22.486;2023-07-02T06:24:33;10.98;;;6.78;;
24030;SDS011;12240;51.142;22.486;2023-07-02T06:27:01;13.32;;;7.40;;
24030;SDS011;12240;51.142;22.486;2023-07-02T06:29:29;17.52;;;7.10;;
24030;SDS011;12240;51.142;22.486;2023-07-02T06:31:57;15.20;;;6.78;;
24030;SDS011;12240;51.142;22.486;2023-07-02T06:34:26;14.63;;;6.00;;
24030;SDS011;12240;51.142;22.486;2023-07-02T06:36:55;14.02;;;6.32;;
24030;SDS011;12240;51.142;22.486;2023-07-02T06:39:22;13.82;;;6.38;;
24030;SDS011;12240;51.142;22.486;2023-07-02T06:41:50;11.73;;;6.30;;
24030;SDS011;12240;51.142;22.486;2023-07-02T06:44:26;12.13;;;5.90;;
24030;SDS011;12240;51.142;22.486;2023-07-02T06:46:54;8.07;;;5.38;;
24030;SDS011;12240;51.142;22.486;2023-07-02T06:49:22;8.00;;;5.35;;
24030;SDS011;12240;51.142;22.486;2023-07-02T06:51:50;14.15;;;5.68;;
24030;SDS011;12240;51.142;22.486;2023-07-02T06:54:18;13.07;;;5.85;;
24030;SDS011;12240;51.142;22.486;2023-07-02T06:56:46;13.77;;;6.30;;
24030;SDS011;12240;51.142;22.486;2023-07-02T06:59:18;10.90;;;6.10;;
24030;SDS011;12240;51.142;22.486;2023-07-02T07:01:49;9.52;;;5.53;;
24030;SDS011;12240;51.142;22.486;2023-07-02T07:04:18;9.23;;;5.53;;
24030;SDS011;12240;51.142;22.486;2023-07-02T07:06:46;7.22;;;5.55;;
24030;SDS011;12240;51.142;22.486;2023-07-02T07:09:14;8.02;;;5.93;;
24030;SDS011;12240;51.142;22.486;2023-07-02T07:11:42;11.05;;;6.00;;
24030;SDS011;12240;51.142;22.486;2023-07-02T07:14:10;9.75;;;5.60;;
24030;SDS011;12240;51.142;22.486;2023-07-02T07:16:39;9.90;;;6.18;;
24030;SDS011;12240;51.142;22.486;2023-07-02T07:19:07;9.68;;;6.10;;
24030;SDS011;12240;51.142;22.486;2023-07-02T07:21:35;11.85;;;6.10;;
24030;SDS011;12240;51.142;22.486;2023-07-02T07:24:04;12.07;;;6.13;;
24030;SDS011;12240;51.142;22.486;2023-07-02T07:26:33;10.48;;;6.55;;
24030;SDS011;12240;51.142;22.486;2023-07-02T07:29:01;9.98;;;6.47;;
24030;SDS011;12240;51.142;22.486;2023-07-02T07:31:33;12.43;;;5.43;;
24030;SDS011;12240;51.142;22.486;2023-07-02T07:38:53;9.90;;;5.15;;
24030;SDS011;12240;51.142;22.486;2023-07-02T07:41:25;8.07;;;5.28;;
24030;SDS011;12240;51.142;22.486;2023-07-02T07:43:53;14.32;;;6.05;;
24030;SDS011;12240;51.142;22.486;2023-07-02T07:46:21;10.45;;;6.07;;
24030;SDS011;12240;51.142;22.486;2023-07-02T07:48:51;8.52;;;5.95;;
24030;SDS011;12240;51.142;22.486;2023-07-02T07:51:19;16.35;;;5.75;;
24030;SDS011;12240;51.142;22.486;2023-07-02T07:53:47;13.57;;;5.85;;
24030;SDS011;12240;51.142;22.486;2023-07-02T07:56:15;11.90;;;5.72;;
24030;SDS011;12240;51.142;22.486;2023-07-02T07:58:43;11.93;;;5.65;;
24030;SDS011;12240;51.142;22.486;2023-07-02T08:01:12;7.35;;;5.45;;
24030;SDS011;12240;51.142;22.486;2023-07-02T08:03:40;9.30;;;5.18;;
24030;SDS011;12240;51.142;22.486;2023-07-02T08:06:08;8.30;;;6.07;;
24030;SDS011;12240;51.142;22.486;2023-07-02T08:08:36;10.13;;;5.78;;
24030;SDS011;12240;51.142;22.486;2023-07-02T08:11:05;8.30;;;5.75;;
24030;SDS011;12240;51.142;22.486;2023-07-02T08:13:33;9.15;;;5.35;;
24030;SDS011;12240;51.142;22.486;2023-07-02T08:16:01;9.30;;;5.18;;
24030;SDS011;12240;51.142;22.486;2023-07-02T08:18:29;10.18;;;5.15;;
24030;SDS011;12240;51.142;22.486;2023-07-02T08:20:57;11.05;;;5.25;;
24030;SDS011;12240;51.142;22.486;2023-07-02T08:23:25;10.20;;;4.57;;
24030;SDS011;12240;51.142;22.486;2023-07-02T08:25:53;8.13;;;5.00;;
24030;SDS011;12240;51.142;22.486;2023-07-02T08:28:21;8.93;;;5.65;;
24030;SDS011;12240;51.142;22.486;2023-07-02T08:30:50;8.65;;;4.85;;
24030;SDS011;12240;51.142;22.486;2023-07-02T08:33:18;6.63;;;4.80;;
24030;SDS011;12240;51.142;22.486;2023-07-02T08:35:46;8.07;;;4.50;;
24030;SDS011;12240;51.142;22.486;2023-07-02T08:38:14;10.23;;;5.10;;
24030;SDS011;12240;51.142;22.486;2023-07-02T08:40:42;11.98;;;5.10;;
24030;SDS011;12240;51.142;22.486;2023-07-02T08:43:10;9.23;;;5.22;;
24030;SDS011;12240;51.142;22.486;2023-07-02T08:45:40;9.35;;;4.80;;
24030;SDS011;12240;51.142;22.486;2023-07-02T08:48:10;9.25;;;5.32;;
24030;SDS011;12240;51.142;22.486;2023-07-02T08:50:38;9.15;;;5.13;;
24030;SDS011;12240;51.142;22.486;2023-07-02T08:53:07;7.68;;;5.15;;
24030;SDS011;12240;51.142;22.486;2023-07-02T08:55:35;11.25;;;5.25;;
24030;SDS011;12240;51.142;22.486;2023-07-02T08:58:03;10.63;;;5.50;;
24030;SDS011;12240;51.142;22.486;2023-07-02T09:00:32;8.90;;;5.03;;
24030;SDS011;12240;51.142;22.486;2023-07-02T09:03:13;9.07;;;4.88;;
24030;SDS011;12240;51.142;22.486;2023-07-02T09:05:52;8.70;;;4.93;;
24030;SDS011;12240;51.142;22.486;2023-07-02T09:08:24;11.73;;;5.07;;
24030;SDS011;12240;51.142;22.486;2023-07-02T09:10:54;8.30;;;4.95;;
24030;SDS011;12240;51.142;22.486;2023-07-02T09:13:42;11.43;;;5.30;;
24030;SDS011;12240;51.142;22.486;2023-07-02T09:16:22;10.82;;;5.22;;
24030;SDS011;12240;51.142;22.486;2023-07-02T09:19:04;11.70;;;4.85;;
24030;SDS011;12240;51.142;22.486;2023-07-02T09:21:40;8.85;;;4.68;;
24030;SDS011;12240;51.142;22.486;2023-07-02T09:24:22;10.68;;;5.43;;
24030;SDS011;12240;51.142;22.486;2023-07-02T09:26:52;11.50;;;5.82;;
24030;SDS011;12240;51.142;22.486;2023-07-02T09:31:57;8.75;;;5.15;;
24030;SDS011;12240;51.142;22.486;2023-07-02T09:34:37;12.07;;;4.95;;
24030;SDS011;12240;51.142;22.486;2023-07-02T09:37:09;8.70;;;4.90;;
24030;SDS011;12240;51.142;22.486;2023-07-02T09:39:38;10.85;;;5.00;;
24030;SDS011;12240;51.142;22.486;2023-07-02T09:42:07;10.50;;;5.28;;
24030;SDS011;12240;51.142;22.486;2023-07-02T09:44:37;6.55;;;4.47;;
24030;SDS011;12240;51.142;22.486;2023-07-02T09:47:07;8.52;;;5.28;;
24030;SDS011;12240;51.142;22.486;2023-07-02T09:49:36;9.25;;;5.35;;
24030;SDS011;12240;51.142;22.486;2023-07-02T09:52:07;9.23;;;4.88;;
24030;SDS011;12240;51.142;22.486;2023-07-02T09:54:37;9.93;;;5.60;;
24030;SDS011;12240;51.142;22.486;2023-07-02T09:57:06;9.25;;;5.53;;
24030;SDS011;12240;51.142;22.486;2023-07-02T09:59:34;9.10;;;5.28;;
24030;SDS011;12240;51.142;22.486;2023-07-02T10:02:03;11.55;;;5.40;;
24030;SDS011;12240;51.142;22.486;2023-07-02T10:04:42;10.00;;;5.45;;
24030;SDS011;12240;51.142;22.486;2023-07-02T10:07:25;8.80;;;5.32;;
24030;SDS011;12240;51.142;22.486;2023-07-02T10:09:58;8.80;;;5.10;;
24030;SDS011;12240;51.142;22.486;2023-07-02T10:12:27;8.27;;;5.00;;
24030;SDS011;12240;51.142;22.486;2023-07-02T10:14:57;8.70;;;4.80;;
24030;SDS011;12240;51.142;22.486;2023-07-02T10:20:02;9.18;;;5.53;;
24030;SDS011;12240;51.142;22.486;2023-07-02T10:22:45;10.82;;;5.60;;
24030;SDS011;12240;51.142;22.486;2023-07-02T10:25:28;11.13;;;5.57;;
24030;SDS011;12240;51.142;22.486;2023-07-02T10:28:13;12.50;;;5.65;;
24030;SDS011;12240;51.142;22.486;2023-07-02T10:30:42;11.73;;;5.87;;
24030;SDS011;12240;51.142;22.486;2023-07-02T10:35:46;8.68;;;5.63;;
24030;SDS011;12240;51.142;22.486;2023-07-02T10:38:21;12.68;;;4.75;;
24030;SDS011;12240;51.142;22.486;2023-07-02T10:40:54;10.65;;;5.50;;
24030;SDS011;12240;51.142;22.486;2023-07-02T10:43:28;10.20;;;4.95;;
24030;SDS011;12240;51.142;22.486;2023-07-02T10:46:00;12.48;;;5.70;;
24030;SDS011;12240;51.142;22.486;2023-07-02T10:48:30;10.25;;;4.88;;
24030;SDS011;12240;51.142;22.486;2023-07-02T10:50:59;6.80;;;3.80;;
24030;SDS011;12240;51.142;22.486;2023-07-02T10:53:27;10.05;;;4.68;;
24030;SDS011;12240;51.142;22.486;2023-07-02T10:55:56;7.35;;;4.18;;
24030;SDS011;12240;51.142;22.486;2023-07-02T10:58:25;9.70;;;4.72;;
24030;SDS011;12240;51.142;22.486;2023-07-02T11:00:54;8.27;;;4.53;;
24030;SDS011;12240;51.142;22.486;2023-07-02T11:03:23;8.63;;;4.25;;
24030;SDS011;12240;51.142;22.486;2023-07-02T11:05:53;10.50;;;4.90;;
24030;SDS011;12240;51.142;22.486;2023-07-02T11:08:22;6.72;;;4.20;;
24030;SDS011;12240;51.142;22.486;2023-07-02T11:11:03;9.25;;;3.25;;
24030;SDS011;12240;51.142;22.486;2023-07-02T11:13:43;9.40;;;4.57;;
24030;SDS011;12240;51.142;22.486;2023-07-02T11:16:21;12.95;;;4.30;;
24030;SDS011;12240;51.142;22.486;2023-07-02T11:19:05;10.77;;;4.97;;
24030;SDS011;12240;51.142;22.486;2023-07-02T11:21:38;8.55;;;4.45;;
24030;SDS011;12240;51.142;22.486;2023-07-02T11:27:04;8.23;;;4.55;;
24030;SDS011;12240;51.142;22.486;2023-07-02T11:29:35;8.20;;;4.43;;
24030;SDS011;12240;51.142;22.486;2023-07-02T11:32:04;12.90;;;4.72;;
24030;SDS011;12240;51.142;22.486;2023-07-02T11:34:39;9.90;;;4.68;;
24030;SDS011;12240;51.142;22.486;2023-07-02T11:37:07;9.25;;;4.75;;
24030;SDS011;12240;51.142;22.486;2023-07-02T11:39:35;8.70;;;3.83;;
24030;SDS011;12240;51.142;22.486;2023-07-02T11:42:04;12.25;;;4.32;;
24030;SDS011;12240;51.142;22.486;2023-07-02T11:44:32;8.68;;;4.80;;
24030;SDS011;12240;51.142;22.486;2023-07-02T11:47:01;5.32;;;3.45;;
24030;SDS011;12240;51.142;22.486;2023-07-02T11:52:00;9.57;;;4.10;;
24030;SDS011;12240;51.142;22.486;2023-07-02T11:54:28;6.03;;;3.75;;
24030;SDS011;12240;51.142;22.486;2023-07-02T11:56:58;8.85;;;4.53;;
24030;SDS011;12240;51.142;22.486;2023-07-02T11:59:26;7.70;;;3.97;;
24030;SDS011;12240;51.142;22.486;2023-07-02T12:01:54;7.72;;;3.97;;
24030;SDS011;12240;51.142;22.486;2023-07-02T12:04:23;11.05;;;3.97;;
24030;SDS011;12240;51.142;22.486;2023-07-02T12:06:51;8.18;;;4.07;;
24030;SDS011;12240;51.142;22.486;2023-07-02T12:09:19;5.88;;;3.58;;
24030;SDS011;12240;51.142;22.486;2023-07-02T12:11:47;6.97;;;3.67;;
24030;SDS011;12240;51.142;22.486;2023-07-02T12:14:16;5.93;;;3.35;;
24030;SDS011;12240;51.142;22.486;2023-07-02T12:16:44;4.72;;;3.00;;
24030;SDS011;12240;51.142;22.486;2023-07-02T12:19:13;5.60;;;2.78;;
24030;SDS011;12240;51.142;22.486;2023-07-02T12:21:42;5.53;;;2.80;;
24030;SDS011;12240;51.142;22.486;2023-07-02T12:24:10;3.88;;;2.72;;
24030;SDS011;12240;51.142;22.486;2023-07-02T12:26:39;6.00;;;2.90;;
24030;SDS011;12240;51.142;22.486;2023-07-02T12:29:08;7.22;;;2.75;;
24030;SDS011;12240;51.142;22.486;2023-07-02T12:31:36;6.03;;;3.40;;
24030;SDS011;12240;51.142;22.486;2023-07-02T12:34:04;4.80;;;2.63;;
24030;SDS011;12240;51.142;22.486;2023-07-02T12:36:33;7.78;;;2.45;;
24030;SDS011;12240;51.142;22.486;2023-07-02T12:39:01;5.85;;;2.40;;
24030;SDS011;12240;51.142;22.486;2023-07-02T12:41:29;2.47;;;1.92;;
24030;SDS011;12240;51.142;22.486;2023-07-02T12:43:57;2.72;;;1.45;;
24030;SDS011;12240;51.142;22.486;2023-07-02T12:46:25;7.28;;;1.88;;
24030;SDS011;12240;51.142;22.486;2023-07-02T12:48:53;3.03;;;1.13;;
24030;SDS011;12240;51.142;22.486;2023-07-02T12:51:21;3.55;;;1.20;;
24030;SDS011;12240;51.142;22.486;2023-07-02T12:53:49;3.58;;;1.63;;
24030;SDS011;12240;51.142;22.486;2023-07-02T12:56:18;1.65;;;1.17;;
24030;SDS011;12240;51.142;22.486;2023-07-02T12:58:46;1.92;;;1.10;;
24030;SDS011;12240;51.142;22.486;2023-07-02T13:01:14;3.47;;;1.00;;
24030;SDS011;12240;51.142;22.486;2023-07-02T13:03:48;2.03;;;0.90;;
24030;SDS011;12240;51.142;22.486;2023-07-02T13:06:17;3.58;;;0.60;;
24030;SDS011;12240;51.142;22.486;2023-07-02T13:08:45;1.58;;;0.80;;
24030;SDS011;12240;51.142;22.486;2023-07-02T13:11:13;3.95;;;0.90;;
24030;SDS011;12240;51.142;22.486;2023-07-02T13:13:43;3.60;;;0.82;;
24030;SDS011;12240;51.142;22.486;2023-07-02T13:16:11;1.60;;;0.70;;
24030;SDS011;12240;51.142;22.486;2023-07-02T13:18:40;4.85;;;1.25;;
24030;SDS011;12240;51.142;22.486;2023-07-02T13:21:08;3.05;;;1.30;;
24030;SDS011;12240;51.142;22.486;2023-07-02T13:23:37;1.73;;;1.13;;
24030;SDS011;12240;51.142;22.486;2023-07-02T13:26:05;4.95;;;0.70;;
24030;SDS011;12240;51.142;22.486;2023-07-02T13:28:33;2.88;;;0.73;;
24030;SDS011;12240;51.142;22.486;2023-07-02T13:31:01;0.63;;;0.52;;
24030;SDS011;12240;51.142;22.486;2023-07-02T13:33:29;0.82;;;0.70;;
24030;SDS011;12240;51.142;22.486;2023-07-02T13:35:58;3.25;;;0.68;;
24030;SDS011;12240;51.142;22.486;2023-07-02T13:38:26;2.10;;;0.75;;
24030;SDS011;12240;51.142;22.486;2023-07-02T13:40:55;5.45;;;0.80;;
24030;SDS011;12240;51.142;22.486;2023-07-02T13:43:23;2.17;;;1.50;;
24030;SDS011;12240;51.142;22.486;2023-07-02T13:45:52;1.25;;;0.82;;
24030;SDS011;12240;51.142;22.486;2023-07-02T13:48:22;4.22;;;1.00;;
24030;SDS011;12240;51.142;22.486;2023-07-02T13:50:54;1.55;;;1.00;;
24030;SDS011;12240;51.142;22.486;2023-07-02T13:53:22;1.73;;;0.90;;
24030;SDS011;12240;51.142;22.486;2023-07-02T13:55:51;2.75;;;1.30;;
24030;SDS011;12240;51.142;22.486;2023-07-02T13:58:19;2.45;;;1.00;;
24030;SDS011;12240;51.142;22.486;2023-07-02T14:00:56;2.05;;;1.00;;
24030;SDS011;12240;51.142;22.486;2023-07-02T14:03:24;1.48;;;1.00;;
24030;SDS011;12240;51.142;22.486;2023-07-02T14:05:53;1.88;;;1.00;;
24030;SDS011;12240;51.142;22.486;2023-07-02T14:08:21;1.63;;;0.90;;
24030;SDS011;12240;51.142;22.486;2023-07-02T14:10:49;1.42;;;0.95;;
24030;SDS011;12240;51.142;22.486;2023-07-02T14:13:17;1.55;;;1.02;;
24030;SDS011;12240;51.142;22.486;2023-07-02T14:15:46;2.50;;;0.90;;
24030;SDS011;12240;51.142;22.486;2023-07-02T14:18:14;1.30;;;0.90;;
24030;SDS011;12240;51.142;22.486;2023-07-02T14:20:43;0.93;;;0.70;;
24030;SDS011;12240;51.142;22.486;2023-07-02T14:23:11;1.35;;;0.80;;
24030;SDS011;12240;51.142;22.486;2023-07-02T14:25:39;2.53;;;0.75;;
24030;SDS011;12240;51.142;22.486;2023-07-02T14:28:08;1.00;;;0.80;;
24030;SDS011;12240;51.142;22.486;2023-07-02T14:30:39;1.02;;;0.85;;
24030;SDS011;12240;51.142;22.486;2023-07-02T14:33:10;1.42;;;0.93;;
24030;SDS011;12240;51.142;22.486;2023-07-02T14:35:39;1.17;;;0.70;;
24030;SDS011;12240;51.142;22.486;2023-07-02T14:38:07;1.77;;;0.60;;
24030;SDS011;12240;51.142;22.486;2023-07-02T14:40:36;4.35;;;0.80;;
24030;SDS011;12240;51.142;22.486;2023-07-02T14:43:04;2.67;;;0.70;;
24030;SDS011;12240;51.142;22.486;2023-07-02T14:45:34;2.83;;;0.90;;
24030;SDS011;12240;51.142;22.486;2023-07-02T14:48:02;1.05;;;0.70;;
24030;SDS011;12240;51.142;22.486;2023-07-02T14:50:31;0.85;;;0.68;;
24030;SDS011;12240;51.142;22.486;2023-07-02T14:52:59;0.80;;;0.70;;
24030;SDS011;12240;51.142;22.486;2023-07-02T14:55:28;0.80;;;0.80;;